createdAt,value
2018-12-12T00:02:22.883Z,99031.77
2018-12-12T00:04:52.132Z,99029.67
2018-12-12T00:07:21.732Z,99036.68
2018-12-12T00:09:50.706Z,99033.41
2018-12-12T00:12:20.035Z,99030.05
2018-12-12T00:14:49.714Z,99032.33
2018-12-12T00:17:18.800Z,99041.30
2018-12-12T00:19:48.133Z,99035.30
2018-12-12T00:22:17.302Z,99032.61
2018-12-12T00:24:46.358Z,99034.98
2018-12-12T00:27:15.452Z,99037.72
2018-12-12T00:29:45.518Z,99038.31
2018-12-12T00:32:14.791Z,99029.27
2018-12-12T00:34:43.855Z,99043.48
2018-12-12T00:37:12.966Z,99033.00
2018-12-12T00:39:42.619Z,99032.56
2018-12-12T00:42:11.643Z,99032.48
2018-12-12T00:44:40.803Z,99032.48
2018-12-12T00:47:10.001Z,99038.53
2018-12-12T00:49:39.408Z,99034.70
2018-12-12T00:52:08.781Z,99037.80
2018-12-12T00:54:37.848Z,99040.56
2018-12-12T00:57:06.971Z,99041.44
2018-12-12T00:59:36.163Z,99035.66
2018-12-12T01:02:05.846Z,99031.61
2018-12-12T01:04:34.890Z,99029.70
2018-12-12T01:07:04.191Z,99027.91
2018-12-12T01:09:34.227Z,99029.48
2018-12-12T01:12:12.315Z,99030.66
2018-12-12T01:14:41.665Z,99025.41
2018-12-12T01:17:10.781Z,99025.97
2018-12-12T01:19:40.209Z,99019.42
2018-12-12T01:22:10.064Z,99025.44
2018-12-12T01:24:39.375Z,99016.37
2018-12-12T01:27:08.459Z,99018.27
2018-12-12T01:29:37.532Z,99018.22
2018-12-12T01:32:06.783Z,99005.95
2018-12-12T01:34:36.406Z,99011.61
2018-12-12T01:37:05.501Z,99008.61
2018-12-12T01:39:34.645Z,99010.03
2018-12-12T01:42:03.752Z,98998.61
2018-12-12T01:44:33.152Z,99006.27
2018-12-12T01:47:02.387Z,99006.55
2018-12-12T01:49:31.684Z,99002.41
2018-12-12T01:52:00.779Z,99007.81
2018-12-12T01:54:30.164Z,99009.47
2018-12-12T01:56:59.234Z,99004.53
2018-12-12T01:59:28.553Z,99002.25
2018-12-12T02:01:58.115Z,99013.03
2018-12-12T02:04:27.182Z,99002.21
2018-12-12T02:06:56.337Z,99001.94
2018-12-12T02:09:26.196Z,98994.91
2018-12-12T02:11:56.072Z,98996.85
2018-12-12T02:14:25.227Z,98998.42
2018-12-12T02:16:54.299Z,99000.98
2018-12-12T02:19:23.668Z,98999.72
2018-12-12T02:21:52.725Z,99005.34
2018-12-12T02:24:21.971Z,99000.87
2018-12-12T02:26:51.340Z,99008.88
2018-12-12T02:29:20.536Z,99003.94
2018-12-12T02:31:50.045Z,99008.97
2018-12-12T02:34:19.698Z,99006.01
2018-12-12T02:36:49.294Z,99007.09
2018-12-12T02:39:19.298Z,99002.92
2018-12-12T02:41:48.385Z,99003.82
2018-12-12T02:44:17.465Z,99008.82
2018-12-12T02:46:47.037Z,99007.59
2018-12-12T02:49:17.013Z,99000.65
2018-12-12T02:51:46.160Z,99004.53
2018-12-12T02:54:16.122Z,99004.38
2018-12-12T02:56:45.458Z,99003.67
2018-12-12T02:59:14.500Z,99001.66
2018-12-12T03:01:43.928Z,99002.20
2018-12-12T03:04:13.296Z,99006.50
2018-12-12T03:06:42.923Z,98999.84
2018-12-12T03:09:12.007Z,98997.88
2018-12-12T03:11:42.046Z,99003.60
2018-12-12T03:14:11.385Z,98999.30
2018-12-12T03:16:40.730Z,98999.96
2018-12-12T03:19:10.013Z,98994.53
2018-12-12T03:21:39.283Z,98991.10
2018-12-12T03:24:08.443Z,98999.23
2018-12-12T03:26:38.661Z,98996.42
2018-12-12T03:29:08.610Z,99000.77
2018-12-12T03:31:37.649Z,99000.14
2018-12-12T03:34:07.519Z,98998.50
2018-12-12T03:36:36.834Z,99003.45
2018-12-12T03:39:07.760Z,99002.33
2018-12-12T03:41:37.426Z,99003.58
2018-12-12T03:44:06.468Z,98999.01
2018-12-12T03:46:35.550Z,98995.23
2018-12-12T03:49:04.911Z,99003.84
2018-12-12T03:51:34.564Z,99003.94
2018-12-12T03:54:04.633Z,99004.90
2018-12-12T03:56:33.794Z,99014.95
2018-12-12T03:59:03.633Z,99012.62
2018-12-12T04:01:32.729Z,99010.53
2018-12-12T04:04:02.191Z,99017.92
2018-12-12T04:06:31.391Z,99020.19
2018-12-12T04:09:00.589Z,99014.33
2018-12-12T04:11:29.967Z,99007.07
2018-12-12T04:13:59.416Z,99013.98
2018-12-12T04:16:29.338Z,99016.23
2018-12-12T04:18:58.415Z,99022.62
2018-12-12T04:21:27.539Z,99026.33
2018-12-12T04:23:56.957Z,99031.39
2018-12-12T04:26:27.348Z,99033.11
2018-12-12T04:28:56.537Z,99039.64
2018-12-12T04:31:26.331Z,99036.60
2018-12-12T04:33:55.436Z,99047.30
2018-12-12T04:36:24.470Z,99044.64
2018-12-12T04:38:53.632Z,99046.75
2018-12-12T04:41:23.354Z,99042.50
2018-12-12T04:43:52.568Z,99041.59
2018-12-12T04:46:21.613Z,99041.34
2018-12-12T04:48:50.628Z,99038.98
2018-12-12T04:51:19.649Z,99037.06
2018-12-12T04:53:49.787Z,99046.95
2018-12-12T04:56:18.949Z,99038.38
2018-12-12T04:58:48.023Z,99037.79
2018-12-12T05:01:17.281Z,99036.50
2018-12-12T05:03:47.575Z,99040.69
2018-12-12T05:06:17.195Z,99032.42
2018-12-12T05:08:46.364Z,99035.94
2018-12-12T05:11:15.513Z,99040.61
2018-12-12T05:13:44.582Z,99038.92
2018-12-12T05:16:13.814Z,99040.73
2018-12-12T05:18:44.082Z,99038.63
2018-12-12T05:21:13.146Z,99040.25
2018-12-12T05:23:42.139Z,99047.80
2018-12-12T05:26:11.278Z,99053.84
2018-12-12T05:28:40.493Z,99051.09
2018-12-12T05:31:09.468Z,99049.98
2018-12-12T05:33:39.791Z,99058.63
2018-12-12T05:36:09.493Z,99051.62
2018-12-12T05:38:39.716Z,99056.58
2018-12-12T05:41:09.081Z,99059.34
2018-12-12T05:43:38.430Z,99068.80
2018-12-12T05:46:07.510Z,99082.88
2018-12-12T05:48:37.157Z,99075.53
2018-12-12T05:51:06.190Z,99090.74
2018-12-12T05:53:35.273Z,99087.77
2018-12-12T05:56:04.368Z,99092.98
2018-12-12T05:58:33.416Z,99098.73
2018-12-12T06:01:02.601Z,99098.25
2018-12-12T06:03:31.859Z,99099.42
2018-12-12T06:06:01.371Z,99095.48
2018-12-12T06:08:31.432Z,99109.21
2018-12-12T06:11:00.731Z,99109.61
2018-12-12T06:13:30.016Z,99113.44
2018-12-12T06:15:59.311Z,99124.45
2018-12-12T06:18:28.616Z,99128.92
2018-12-12T06:20:57.700Z,99128.22
2018-12-12T06:23:27.023Z,99129.84
2018-12-12T06:25:56.828Z,99141.30
2018-12-12T06:28:26.314Z,99138.98
2018-12-12T06:30:55.737Z,99147.27
2018-12-12T06:33:25.275Z,99146.49
2018-12-12T06:35:54.855Z,99141.86
2018-12-12T06:38:23.942Z,99140.34
2018-12-12T06:40:53.143Z,99150.59
2018-12-12T06:43:22.239Z,99154.06
2018-12-12T06:45:51.314Z,99151.61
2018-12-12T06:48:20.731Z,99148.80
2018-12-12T06:50:49.788Z,99146.55
2018-12-12T06:53:18.850Z,99154.70
2018-12-12T06:55:48.034Z,99157.08
2018-12-12T06:58:17.112Z,99149.42
2018-12-12T07:00:46.182Z,99153.71
2018-12-12T07:03:15.412Z,99158.72
2018-12-12T07:05:44.600Z,99160.72
2018-12-12T07:08:13.610Z,99152.12
2018-12-12T07:10:42.693Z,99151.59
2018-12-12T07:13:11.772Z,99152.09
2018-12-12T07:15:40.870Z,99164.89
2018-12-12T07:18:10.223Z,99166.24
2018-12-12T07:20:39.378Z,99165.03
2018-12-12T07:23:09.016Z,99173.72
2018-12-12T07:25:38.166Z,99162.14
2018-12-12T07:28:07.298Z,99169.47
2018-12-12T07:30:36.342Z,99174.72
2018-12-12T07:33:05.553Z,99176.23
2018-12-12T07:35:34.653Z,99181.05
2018-12-12T07:38:03.807Z,99175.24
2018-12-12T07:40:32.921Z,99179.77
2018-12-12T07:43:03.589Z,99184.55
2018-12-12T07:45:32.615Z,99195.91
2018-12-12T07:48:01.967Z,99190.64
2018-12-12T07:50:30.944Z,99192.02
2018-12-12T07:52:59.889Z,99190.77
2018-12-12T07:55:28.911Z,99200.50
2018-12-12T07:57:57.878Z,99199.78
2018-12-12T08:00:26.827Z,99200.08
2018-12-12T08:02:55.825Z,99209.39
2018-12-12T08:05:24.735Z,99213.58
2018-12-12T08:07:53.713Z,99221.78
2018-12-12T08:10:22.711Z,99219.78
2018-12-12T08:12:51.671Z,99214.95
2018-12-12T08:15:20.640Z,99215.53
2018-12-12T08:17:50.922Z,99219.00
2018-12-12T08:20:19.882Z,99209.61
2018-12-12T08:22:48.877Z,99206.87
2018-12-12T08:25:18.275Z,99203.73
2018-12-12T08:27:47.266Z,99205.20
2018-12-12T08:30:16.278Z,99214.03
2018-12-12T08:32:45.318Z,99208.41
2018-12-12T08:35:15.203Z,99217.81
2018-12-12T08:37:44.186Z,99213.42
2018-12-12T08:40:13.330Z,99214.03
2018-12-12T08:42:42.885Z,99216.72
2018-12-12T08:45:11.901Z,99207.80
2018-12-12T08:47:40.935Z,99216.28
2018-12-12T08:50:10.165Z,99221.90
2018-12-12T08:52:39.232Z,99205.43
2018-12-12T08:55:08.655Z,99205.19
2018-12-12T08:57:37.672Z,99218.68
2018-12-12T09:00:06.845Z,99214.98
2018-12-12T09:02:35.900Z,99204.33
2018-12-12T09:05:05.002Z,99207.86
2018-12-12T09:07:34.113Z,99204.73
2018-12-12T09:10:03.207Z,99200.73
2018-12-12T09:12:32.231Z,99205.20
2018-12-12T09:15:01.316Z,99201.83
2018-12-12T09:17:31.111Z,99200.78
2018-12-12T09:20:00.269Z,99193.82
2018-12-12T09:22:29.434Z,99196.17
2018-12-12T09:24:58.587Z,99193.61
2018-12-12T09:27:27.647Z,99194.35
2018-12-12T09:29:56.906Z,99196.80
2018-12-12T09:32:26.283Z,99195.86
2018-12-12T09:34:55.676Z,99195.95
2018-12-12T09:37:24.676Z,99200.96
2018-12-12T09:39:53.814Z,99193.81
2018-12-12T09:42:22.973Z,99182.11
2018-12-12T09:44:52.892Z,99195.04
2018-12-12T09:47:22.127Z,99198.77
2018-12-12T09:49:51.595Z,99196.03
2018-12-12T09:52:21.108Z,99201.17
2018-12-12T09:54:50.880Z,99186.20
2018-12-12T09:57:20.487Z,99185.37
2018-12-12T09:59:49.849Z,99181.45
2018-12-12T10:02:19.257Z,99180.11
2018-12-12T10:04:49.022Z,99182.31
2018-12-12T10:07:18.368Z,99184.09
2018-12-12T10:09:48.794Z,99197.04
2018-12-12T10:12:18.756Z,99185.56
2018-12-12T10:14:48.305Z,99186.70
2018-12-12T10:17:17.751Z,99183.01
2018-12-12T10:19:47.450Z,99185.81
2018-12-12T10:22:18.066Z,99189.17
2018-12-12T10:24:47.999Z,99179.97
2018-12-12T10:27:18.018Z,99176.97
2018-12-12T10:29:48.944Z,99177.31
2018-12-12T10:32:20.442Z,99166.77
2018-12-12T10:34:51.771Z,99165.94
2018-12-12T10:37:22.504Z,99167.58
2018-12-12T10:39:53.405Z,99170.50
2018-12-12T10:42:23.412Z,99171.45
2018-12-12T10:44:54.178Z,99165.88
2018-12-12T10:47:38.599Z,99165.96
2018-12-12T10:50:10.310Z,99167.19
2018-12-12T10:52:40.649Z,99163.42
2018-12-12T10:55:11.095Z,99163.43
2018-12-12T10:57:41.858Z,99168.03
2018-12-12T11:00:13.050Z,99163.13
2018-12-12T11:02:49.295Z,99165.20
2018-12-12T11:05:19.959Z,99157.56
2018-12-12T11:07:50.455Z,99160.09
2018-12-12T11:10:21.153Z,99162.99
2018-12-12T11:12:50.991Z,99160.97
2018-12-12T11:15:22.151Z,99170.02
2018-12-12T11:17:52.823Z,99159.02
2018-12-12T11:20:22.850Z,99157.95
2018-12-12T11:22:53.055Z,99166.50
2018-12-12T11:25:23.710Z,99163.45
2018-12-12T11:27:53.925Z,99155.78
2018-12-12T11:30:24.736Z,99156.69
2018-12-12T11:32:55.447Z,99159.25
2018-12-12T11:35:25.727Z,99157.66
2018-12-12T11:37:55.028Z,99153.08
2018-12-12T11:40:24.923Z,99154.09
2018-12-12T11:42:54.562Z,99154.30
2018-12-12T11:45:23.982Z,99154.01
2018-12-12T11:47:53.635Z,99151.98
2018-12-12T11:50:23.910Z,99156.20
2018-12-12T11:52:53.467Z,99147.64
2018-12-12T11:55:22.697Z,99150.72
2018-12-12T11:57:52.572Z,99149.22
2018-12-12T12:00:22.266Z,99158.55
2018-12-12T12:02:51.859Z,99159.06
2018-12-12T12:05:21.349Z,99152.75
2018-12-12T12:07:50.613Z,99150.84
2018-12-12T12:10:21.512Z,99151.88
2018-12-12T12:12:52.223Z,99147.55
2018-12-12T12:15:23.836Z,99155.80
2018-12-12T12:17:55.437Z,99154.64
2018-12-12T12:20:25.098Z,99152.52
2018-12-12T12:22:56.531Z,99158.78
2018-12-12T12:25:26.396Z,99155.13
2018-12-12T12:27:56.026Z,99154.81
2018-12-12T12:30:26.059Z,99164.77
2018-12-12T12:32:56.191Z,99157.78
2018-12-12T12:35:25.774Z,99162.77
2018-12-12T12:37:56.664Z,99165.09
2018-12-12T12:40:26.409Z,99170.75
2018-12-12T12:42:58.835Z,99179.14
2018-12-12T12:45:30.117Z,99171.39
2018-12-12T12:48:00.340Z,99178.32
2018-12-12T12:50:31.219Z,99180.11
2018-12-12T12:53:02.712Z,99181.87
2018-12-12T12:55:33.676Z,99185.86
2018-12-12T12:58:03.978Z,99188.86
2018-12-12T13:00:34.153Z,99192.30
2018-12-12T13:03:05.671Z,99194.70
2018-12-12T13:05:37.446Z,99192.97
2018-12-12T13:08:07.352Z,99190.72
2018-12-12T13:10:37.912Z,99194.23
2018-12-12T13:13:09.155Z,99194.08
2018-12-12T13:15:40.227Z,99188.09
2018-12-12T13:18:10.875Z,99199.52
2018-12-12T13:20:40.498Z,99201.09
2018-12-12T13:23:13.079Z,99196.81
2018-12-12T13:25:45.287Z,99207.30
2018-12-12T13:28:16.957Z,99204.81
2018-12-12T13:30:49.127Z,99205.80
2018-12-12T13:33:21.329Z,99206.34
2018-12-12T13:35:53.163Z,99211.28
2018-12-12T13:38:27.113Z,99206.39
2018-12-12T13:41:02.159Z,99213.85
2018-12-12T13:43:35.673Z,99218.73
2018-12-12T13:46:16.356Z,99213.53
2018-12-12T13:48:53.604Z,99213.20
2018-12-12T13:51:26.979Z,99215.59
2018-12-12T13:54:02.232Z,99211.55
2018-12-12T13:56:39.023Z,99226.44
2018-12-12T13:59:16.037Z,99231.82
2018-12-12T14:01:57.800Z,99228.36
2018-12-12T14:04:29.762Z,99239.17
2018-12-12T14:06:59.342Z,99232.38
2018-12-12T14:09:30.148Z,99232.77
2018-12-12T14:12:02.902Z,99238.08
2018-12-12T14:14:35.096Z,99242.13
2018-12-12T14:17:06.271Z,99245.91
2018-12-12T14:19:38.545Z,99247.42
2018-12-12T14:22:20.796Z,99250.41
2018-12-12T14:24:55.403Z,99254.68
2018-12-12T14:27:27.091Z,99251.18
2018-12-12T14:30:04.180Z,99250.38
2018-12-12T14:32:35.738Z,99257.20
2018-12-12T14:35:06.819Z,99251.12
2018-12-12T14:37:41.589Z,99252.63
2018-12-12T14:40:16.319Z,99253.84
2018-12-12T14:42:55.134Z,99248.77
2018-12-12T14:45:27.416Z,99249.05
2018-12-12T14:47:58.760Z,99250.91
2018-12-12T14:50:32.511Z,99250.91
2018-12-12T14:53:06.560Z,99257.38
2018-12-12T14:55:40.394Z,99252.53
2018-12-12T14:58:12.593Z,99254.01
2018-12-12T15:00:43.079Z,99252.41
2018-12-12T15:03:13.396Z,99251.06
2018-12-12T15:05:45.754Z,99251.72
2018-12-12T15:08:42.001Z,99260.09
2018-12-12T15:11:17.634Z,99260.72
2018-12-12T15:13:49.030Z,99266.39
2018-12-12T15:16:21.420Z,99263.38
2018-12-12T15:18:55.084Z,99262.38
2018-12-12T15:21:30.097Z,99267.52
2018-12-12T15:24:05.410Z,99272.39
2018-12-12T15:26:35.428Z,99235.38
2018-12-12T15:29:09.254Z,99279.61
2018-12-12T15:32:00.860Z,99270.99
2018-12-12T15:34:42.214Z,99276.31
2018-12-12T15:37:14.444Z,99293.16
2018-12-12T15:39:47.063Z,99280.56
2018-12-12T15:42:19.251Z,99284.39
2018-12-12T15:44:50.619Z,99290.86
2018-12-12T15:47:28.598Z,99284.07
2018-12-12T15:50:01.412Z,99289.70
2018-12-12T15:52:32.860Z,99290.56
2018-12-12T15:55:07.672Z,99297.27
2018-12-12T15:57:40.104Z,99297.05
2018-12-12T16:00:13.193Z,99306.17
2018-12-12T16:02:52.692Z,99294.03
2018-12-12T16:05:25.100Z,99298.38
2018-12-12T16:07:56.520Z,99299.64
2018-12-12T16:10:34.485Z,99306.09
2018-12-12T16:13:10.477Z,99300.13
2018-12-12T16:15:44.588Z,99300.94
2018-12-12T16:18:15.972Z,99298.91
2018-12-12T16:20:49.057Z,99306.61
2018-12-12T16:23:20.541Z,99309.28
2018-12-12T16:25:51.306Z,99307.56
2018-12-12T16:28:22.357Z,99308.60
2018-12-12T16:30:53.372Z,99282.00
2018-12-12T16:33:28.230Z,99322.21
2018-12-12T16:36:00.630Z,99310.64
2018-12-12T16:38:35.406Z,99317.55
2018-12-12T16:41:06.216Z,99322.47
2018-12-12T16:43:36.653Z,99320.41
2018-12-12T16:46:18.952Z,99330.23
2018-12-12T16:48:50.586Z,99329.70
2018-12-12T16:51:23.318Z,99330.74
2018-12-12T16:53:55.741Z,99331.42
2018-12-12T16:56:28.460Z,99327.28
2018-12-12T16:59:04.048Z,99322.96
2018-12-12T17:01:35.291Z,99331.27
2018-12-12T17:04:10.796Z,99327.98
2018-12-12T17:06:46.391Z,99325.41
2018-12-12T17:09:28.337Z,99323.58
2018-12-12T17:12:02.758Z,99322.95
2018-12-12T17:14:37.054Z,99326.25
2018-12-12T17:17:13.687Z,99324.16
2018-12-12T17:19:49.642Z,99316.63
2018-12-12T17:22:28.268Z,99326.75
2018-12-12T17:25:02.234Z,99320.38
2018-12-12T17:27:36.678Z,99319.88
2018-12-12T17:30:15.484Z,99323.09
2018-12-12T17:32:53.291Z,99325.63
2018-12-12T17:35:23.967Z,99326.66
2018-12-12T17:37:58.500Z,99328.16
2018-12-12T17:40:34.183Z,99330.75
2018-12-12T17:43:05.169Z,99331.17
2018-12-12T17:45:43.511Z,99335.98
2018-12-12T17:48:17.153Z,99338.66
2018-12-12T17:50:47.094Z,99337.20
2018-12-12T17:53:22.929Z,99333.53
2018-12-12T17:55:55.440Z,99331.03
2018-12-12T17:58:31.002Z,99338.31
2018-12-12T18:01:08.682Z,99335.22
2018-12-12T18:03:46.010Z,99343.85
2018-12-12T18:06:19.603Z,99340.14
2018-12-12T18:08:59.444Z,99343.84
2018-12-12T18:11:45.511Z,99347.09
2018-12-12T18:14:19.667Z,99348.84
2018-12-12T18:16:59.852Z,99353.74
2018-12-12T18:19:33.245Z,99353.02
2018-12-12T18:22:06.185Z,99351.92
2018-12-12T18:24:39.429Z,99359.41
2018-12-12T18:27:14.615Z,99358.58
2018-12-12T18:29:45.373Z,99360.66
2018-12-12T18:32:21.004Z,99356.02
2018-12-12T18:34:54.486Z,99358.96
2018-12-12T18:37:29.834Z,99363.12
2018-12-12T18:40:00.535Z,99357.70
2018-12-12T18:42:34.337Z,99363.44
2018-12-12T18:45:06.014Z,99367.81
2018-12-12T18:47:44.417Z,99279.43
2018-12-12T18:50:19.395Z,99370.47
2018-12-12T18:52:51.367Z,99375.50
2018-12-12T18:55:26.036Z,99375.57
2018-12-12T18:57:55.932Z,99376.73
2018-12-12T19:00:27.040Z,99379.77
2018-12-12T19:03:02.092Z,99381.23
2018-12-12T19:05:35.147Z,99381.93
2018-12-12T19:08:07.504Z,99381.92
2018-12-12T19:10:48.551Z,99379.08
2018-12-12T19:13:19.627Z,99380.47
2018-12-12T19:15:50.369Z,99382.49
2018-12-12T19:18:23.387Z,99379.25
2018-12-12T19:21:00.276Z,99379.09
2018-12-12T19:26:51.118Z,99382.59
2018-12-12T19:29:25.982Z,99378.50
2018-12-12T19:31:57.036Z,99385.50
2018-12-12T19:34:35.816Z,99384.02
2018-12-12T19:37:08.757Z,99387.83
2018-12-12T19:39:41.058Z,99378.80
2018-12-12T19:42:12.414Z,99383.91
2018-12-12T19:44:45.439Z,99392.63
2018-12-12T19:47:18.845Z,99391.94
2018-12-12T19:49:51.662Z,99393.18
2018-12-12T19:52:26.003Z,99389.57
2018-12-12T19:55:01.709Z,99387.06
2018-12-12T19:57:38.557Z,99395.34
2018-12-12T20:00:10.315Z,99388.04
2018-12-12T20:02:46.081Z,99385.36
2018-12-12T20:05:17.324Z,99381.30
2018-12-12T20:07:47.315Z,99389.19
2018-12-12T20:10:20.707Z,99386.83
2018-12-12T20:12:51.418Z,99381.42
2018-12-12T20:15:27.833Z,99389.17
2018-12-12T20:17:58.525Z,99390.53
2018-12-12T20:20:32.211Z,99387.50
2018-12-12T20:23:06.402Z,99391.02
2018-12-12T20:25:36.358Z,99387.59
2018-12-12T20:28:12.183Z,99387.69
2018-12-12T20:30:45.331Z,99399.41
2018-12-12T20:33:16.466Z,99400.80
2018-12-12T20:35:48.238Z,99396.05
2018-12-12T20:38:18.245Z,99393.54
2018-12-12T20:40:51.304Z,99386.23
2018-12-12T20:43:22.521Z,99390.99
2018-12-12T20:45:54.544Z,99395.59
2018-12-12T20:48:26.631Z,99397.91
2018-12-12T20:50:56.414Z,99393.21
2018-12-12T20:53:27.589Z,99394.98
2018-12-12T20:55:58.294Z,99397.03
2018-12-12T20:58:29.115Z,99389.49
2018-12-12T21:01:00.474Z,99396.31
2018-12-12T21:03:33.908Z,99398.30
2018-12-12T21:06:05.562Z,99396.69
2018-12-12T21:08:37.327Z,99402.19
2018-12-12T21:11:08.070Z,99404.03
2018-12-12T21:13:40.377Z,99400.19
2018-12-12T21:16:11.577Z,99394.23
2018-12-12T21:18:45.045Z,99392.94
2018-12-12T21:21:15.605Z,99397.47
2018-12-12T21:23:47.826Z,99403.86
2018-12-12T21:26:22.406Z,99411.53
2018-12-12T21:28:52.871Z,99415.06
2018-12-12T21:31:24.210Z,99415.47
2018-12-12T21:33:54.742Z,99418.15
2018-12-12T21:36:25.720Z,99424.21
2018-12-12T21:38:56.975Z,99428.27
2018-12-12T21:41:30.282Z,99418.52
2018-12-12T21:44:00.974Z,99425.31
2018-12-12T21:46:34.017Z,99426.89
2018-12-12T21:49:05.482Z,99430.03
2018-12-12T21:51:35.336Z,99431.69
2018-12-12T21:54:06.066Z,99428.36
2018-12-12T21:56:44.030Z,99433.52
2018-12-12T21:59:15.685Z,99434.76
2018-12-12T22:01:46.662Z,99436.10
2018-12-12T22:04:16.800Z,99426.33
2018-12-12T22:06:48.626Z,99415.09
2018-12-12T22:09:20.254Z,99425.67
2018-12-12T22:11:53.975Z,99430.50
2018-12-12T22:14:24.505Z,99426.54
2018-12-12T22:16:54.808Z,99420.36
2018-12-12T22:19:25.954Z,99417.61
2018-12-12T22:21:57.675Z,99412.39
2018-12-12T22:24:27.771Z,99412.33
2018-12-12T22:26:57.637Z,99415.66
2018-12-12T22:29:27.708Z,99416.50
2018-12-12T22:31:58.928Z,99411.72
2018-12-12T22:34:28.212Z,99415.00
2018-12-12T22:36:59.630Z,99404.80
2018-12-12T22:39:28.755Z,99406.21
2018-12-12T22:41:59.158Z,99408.58
2018-12-12T22:44:29.701Z,99411.02
2018-12-12T22:47:01.220Z,99400.20
2018-12-12T22:49:30.595Z,99397.26
2018-12-12T22:52:01.064Z,99392.84
2018-12-12T22:54:30.387Z,99397.33
2018-12-12T22:57:00.059Z,99395.81
2018-12-12T22:59:31.069Z,99399.23
2018-12-12T23:02:00.786Z,99395.47
2018-12-12T23:04:31.140Z,99401.52
2018-12-12T23:07:02.708Z,99394.22
2018-12-12T23:09:33.094Z,99398.19
2018-12-12T23:12:03.530Z,99393.53
2018-12-12T23:14:34.698Z,99277.95
2018-12-12T23:17:05.725Z,99400.08
2018-12-12T23:19:36.405Z,99400.13
2018-12-12T23:22:07.174Z,99394.05
2018-12-12T23:24:36.704Z,99403.52
2018-12-12T23:27:07.133Z,99400.67
2018-12-12T23:29:39.003Z,99398.20
2018-12-12T23:32:10.360Z,99406.72
2018-12-12T23:34:40.632Z,99400.72
2018-12-12T23:37:10.520Z,99411.54
2018-12-12T23:39:42.700Z,99408.48
2018-12-12T23:42:13.965Z,99410.45
2018-12-12T23:44:47.971Z,99403.44
2018-12-12T23:47:18.835Z,99405.54
2018-12-12T23:49:49.632Z,99407.85
2018-12-12T23:52:20.996Z,99406.70
2018-12-12T23:54:52.798Z,99408.64
2018-12-12T23:57:23.078Z,99408.09
2018-12-12T23:59:54.634Z,99413.89
